sensor_id;sensor_type;location;lat;lon;timestamp;pressure;altitude;pressure_sealevel;temperature;humidity
57574;BME280;63722;48.858;21.906;2023-02-19T00:02:20;98138.97;;;20.54;36.76
57574;BME280;63722;48.858;21.906;2023-02-19T00:04:45;98141.44;;;20.61;36.62
57574;BME280;63722;48.858;21.906;2023-02-19T00:07:10;98139.75;;;20.49;36.73
57574;BME280;63722;48.858;21.906;2023-02-19T00:09:36;98136.88;;;20.56;36.61
57574;BME280;63722;48.858;21.906;2023-02-19T00:12:01;98140.88;;;20.58;36.69
57574;BME280;63722;48.858;21.906;2023-02-19T00:14:27;98143.50;;;20.53;36.68
57574;BME280;63722;48.858;21.906;2023-02-19T00:16:52;98148.31;;;20.51;36.46
57574;BME280;63722;48.858;21.906;2023-02-19T00:19:19;98141.38;;;20.50;36.66
57574;BME280;63722;48.858;21.906;2023-02-19T00:21:45;98138.19;;;20.53;36.63
57574;BME280;63722;48.858;21.906;2023-02-19T00:24:12;98148.84;;;20.53;36.75
57574;BME280;63722;48.858;21.906;2023-02-19T00:26:38;98146.81;;;20.66;36.45
57574;BME280;63722;48.858;21.906;2023-02-19T00:29:05;98140.94;;;20.64;36.59
57574;BME280;63722;48.858;21.906;2023-02-19T00:31:34;98150.19;;;20.56;36.74
57574;BME280;63722;48.858;21.906;2023-02-19T00:34:02;98147.75;;;20.49;36.76
57574;BME280;63722;48.858;21.906;2023-02-19T00:36:32;98157.69;;;20.59;36.52
57574;BME280;63722;48.858;21.906;2023-02-19T00:39:00;98159.75;;;20.52;36.64
57574;BME280;63722;48.858;21.906;2023-02-19T00:41:26;98160.28;;;20.54;36.63
57574;BME280;63722;48.858;21.906;2023-02-19T00:46:24;98165.16;;;20.62;36.63
57574;BME280;63722;48.858;21.906;2023-02-19T00:48:50;98165.97;;;20.63;36.58
57574;BME280;63722;48.858;21.906;2023-02-19T00:51:17;98163.22;;;20.52;36.50
57574;BME280;63722;48.858;21.906;2023-02-19T00:53:42;98166.19;;;20.56;36.62
57574;BME280;63722;48.858;21.906;2023-02-19T00:56:08;98170.94;;;20.54;36.62
57574;BME280;63722;48.858;21.906;2023-02-19T00:58:34;98173.59;;;20.54;36.58
57574;BME280;63722;48.858;21.906;2023-02-19T01:00:59;98159.75;;;20.52;36.63
57574;BME280;63722;48.858;21.906;2023-02-19T01:03:25;98167.50;;;20.53;36.83
57574;BME280;63722;48.858;21.906;2023-02-19T01:05:51;98174.44;;;20.54;36.84
57574;BME280;63722;48.858;21.906;2023-02-19T01:08:16;98178.94;;;20.54;36.79
57574;BME280;63722;48.858;21.906;2023-02-19T01:10:42;98173.59;;;20.54;36.26
57574;BME280;63722;48.858;21.906;2023-02-19T01:13:08;98180.28;;;20.56;36.46
57574;BME280;63722;48.858;21.906;2023-02-19T01:15:33;98181.41;;;20.61;36.20
57574;BME280;63722;48.858;21.906;2023-02-19T01:17:58;98171.19;;;20.52;36.58
57574;BME280;63722;48.858;21.906;2023-02-19T01:20:24;98173.59;;;20.54;36.77
57574;BME280;63722;48.858;21.906;2023-02-19T01:22:50;98173.59;;;20.54;36.64
57574;BME280;63722;48.858;21.906;2023-02-19T01:25:16;98172.28;;;20.51;36.79
57574;BME280;63722;48.858;21.906;2023-02-19T01:27:41;98182.09;;;20.51;36.66
57574;BME280;63722;48.858;21.906;2023-02-19T01:30:07;98175.75;;;20.52;36.58
57574;BME280;63722;48.858;21.906;2023-02-19T01:32:33;98179.75;;;20.54;36.70
57574;BME280;63722;48.858;21.906;2023-02-19T01:34:58;98175.75;;;20.52;36.68
57574;BME280;63722;48.858;21.906;2023-02-19T01:37:23;98156.84;;;20.53;36.68
57574;BME280;63722;48.858;21.906;2023-02-19T01:39:49;98151.00;;;20.56;36.67
57574;BME280;63722;48.858;21.906;2023-02-19T01:42:15;98153.13;;;20.54;36.70
57574;BME280;63722;48.858;21.906;2023-02-19T01:47:10;98161.66;;;20.56;36.73
57574;BME280;63722;48.858;21.906;2023-02-19T01:49:42;98160.53;;;20.52;36.92
57574;BME280;63722;48.858;21.906;2023-02-19T01:52:28;98163.00;;;20.59;36.72
57574;BME280;63722;48.858;21.906;2023-02-19T01:54:56;98169.63;;;20.51;36.73
57574;BME280;63722;48.858;21.906;2023-02-19T01:57:25;98168.53;;;20.52;36.74
57574;BME280;63722;48.858;21.906;2023-02-19T01:59:55;98176.03;;;20.55;36.49
57574;BME280;63722;48.858;21.906;2023-02-19T02:02:23;98193.63;;;20.56;36.64
57574;BME280;63722;48.858;21.906;2023-02-19T02:04:53;98183.44;;;20.48;36.92
57574;BME280;63722;48.858;21.906;2023-02-19T02:07:19;98207.69;;;20.52;36.97
57574;BME280;63722;48.858;21.906;2023-02-19T02:10:03;98201.59;;;20.56;36.69
57574;BME280;63722;48.858;21.906;2023-02-19T02:12:45;98202.91;;;20.54;36.41
57574;BME280;63722;48.858;21.906;2023-02-19T02:15:11;98209.59;;;20.56;36.37
57574;BME280;63722;48.858;21.906;2023-02-19T02:23:24;98187.19;;;20.52;36.59
57574;BME280;63722;48.858;21.906;2023-02-19T02:31:03;98207.41;;;20.48;36.84
57574;BME280;63722;48.858;21.906;2023-02-19T02:33:36;98198.34;;;20.49;36.80
57574;BME280;63722;48.858;21.906;2023-02-19T02:36:18;98212.22;;;20.51;36.73
57574;BME280;63722;48.858;21.906;2023-02-19T02:38:45;98215.16;;;20.50;36.64
57574;BME280;63722;48.858;21.906;2023-02-19T02:41:12;98220.16;;;20.46;36.65
57574;BME280;63722;48.858;21.906;2023-02-19T02:43:39;98207.34;;;20.43;36.89
57574;BME280;63722;48.858;21.906;2023-02-19T02:46:04;98211.97;;;20.53;36.72
57574;BME280;63722;48.858;21.906;2023-02-19T02:48:38;98212.22;;;20.51;36.70
57574;BME280;63722;48.858;21.906;2023-02-19T02:51:22;98202.63;;;20.50;36.82
57574;BME280;63722;48.858;21.906;2023-02-19T02:53:52;98201.06;;;20.54;36.75
57574;BME280;63722;48.858;21.906;2023-02-19T02:56:38;98197.28;;;20.45;36.73
57574;BME280;63722;48.858;21.906;2023-02-19T02:59:07;98190.34;;;20.49;36.64
57574;BME280;63722;48.858;21.906;2023-02-19T03:01:41;98179.41;;;20.46;36.78
57574;BME280;63722;48.858;21.906;2023-02-19T03:04:36;98181.81;;;20.47;36.72
57574;BME280;63722;48.858;21.906;2023-02-19T03:07:28;98180.22;;;20.46;36.81
57574;BME280;63722;48.858;21.906;2023-02-19T03:09:56;98199.94;;;20.45;36.74
57574;BME280;63722;48.858;21.906;2023-02-19T03:12:24;98196.69;;;20.43;36.67
57574;BME280;63722;48.858;21.906;2023-02-19T03:15:11;98204.78;;;20.53;36.70
57574;BME280;63722;48.858;21.906;2023-02-19T03:18:02;98205.81;;;20.52;36.69
57574;BME280;63722;48.858;21.906;2023-02-19T03:20:51;98196.19;;;20.46;36.81
57574;BME280;63722;48.858;21.906;2023-02-19T03:23:20;98189.03;;;20.47;36.61
57574;BME280;63722;48.858;21.906;2023-02-19T03:26:09;98185.03;;;20.49;36.66
57574;BME280;63722;48.858;21.906;2023-02-19T03:28:37;98193.53;;;20.46;36.67
57574;BME280;63722;48.858;21.906;2023-02-19T03:31:22;98202.59;;;20.45;36.73
57574;BME280;63722;48.858;21.906;2023-02-19T03:33:53;98205.00;;;20.47;36.55
57574;BME280;63722;48.858;21.906;2023-02-19T03:36:21;98219.13;;;20.47;36.71
57574;BME280;63722;48.858;21.906;2023-02-19T03:38:57;98222.13;;;20.56;36.66
57574;BME280;63722;48.858;21.906;2023-02-19T03:46:53;98224.19;;;20.49;36.71
57574;BME280;63722;48.858;21.906;2023-02-19T03:51:59;98218.25;;;20.42;36.92
57574;BME280;63722;48.858;21.906;2023-02-19T03:55:11;98231.38;;;20.48;37.03
57574;BME280;63722;48.858;21.906;2023-02-19T03:57:55;98231.06;;;20.45;36.74
57574;BME280;63722;48.858;21.906;2023-02-19T04:03:18;98231.06;;;20.45;36.78
57574;BME280;63722;48.858;21.906;2023-02-19T04:05:54;98222.81;;;20.46;36.64
57574;BME280;63722;48.858;21.906;2023-02-19T04:08:23;98220.66;;;20.43;36.62
57574;BME280;63722;48.858;21.906;2023-02-19T04:10:52;98215.06;;;20.39;36.75
57574;BME280;63722;48.858;21.906;2023-02-19T04:13:28;98213.75;;;20.42;36.90
57574;BME280;63722;48.858;21.906;2023-02-19T04:15:59;98219.38;;;20.46;36.65
57574;BME280;63722;48.858;21.906;2023-02-19T04:18:30;98210.84;;;20.44;36.76
57574;BME280;63722;48.858;21.906;2023-02-19T04:20:58;98214.28;;;20.44;36.69
57574;BME280;63722;48.858;21.906;2023-02-19T04:23:27;98220.97;;;20.47;36.79
57574;BME280;63722;48.858;21.906;2023-02-19T04:25:57;98233.47;;;20.46;36.68
57574;BME280;63722;48.858;21.906;2023-02-19T04:28:23;98227.09;;;20.47;36.57
57574;BME280;63722;48.858;21.906;2023-02-19T04:30:49;98223.94;;;20.50;36.65
57574;BME280;63722;48.858;21.906;2023-02-19T04:33:14;98213.78;;;20.47;36.95
57574;BME280;63722;48.858;21.906;2023-02-19T04:35:40;98213.25;;;20.45;36.60
57574;BME280;63722;48.858;21.906;2023-02-19T04:38:05;98213.25;;;20.45;36.72
57574;BME280;63722;48.858;21.906;2023-02-19T04:40:30;98214.03;;;20.46;36.73
57574;BME280;63722;48.858;21.906;2023-02-19T04:42:56;98220.66;;;20.43;36.62
57574;BME280;63722;48.858;21.906;2023-02-19T04:45:21;98231.66;;;20.52;36.75
57574;BME280;63722;48.858;21.906;2023-02-19T04:47:46;98226.31;;;20.47;36.71
57574;BME280;63722;48.858;21.906;2023-02-19T04:50:12;98233.44;;;20.41;36.70
57574;BME280;63722;48.858;21.906;2023-02-19T04:52:37;98234.81;;;20.44;36.67
57574;BME280;63722;48.858;21.906;2023-02-19T04:55:04;98232.94;;;20.44;36.47
57574;BME280;63722;48.858;21.906;2023-02-19T04:57:29;98237.47;;;20.44;36.82
57574;BME280;63722;48.858;21.906;2023-02-19T04:59:55;98245.22;;;20.45;36.71
57574;BME280;63722;48.858;21.906;2023-02-19T05:02:20;98249.19;;;20.48;36.72
57574;BME280;63722;48.858;21.906;2023-02-19T05:04:45;98251.88;;;20.48;36.53
57574;BME280;63722;48.858;21.906;2023-02-19T05:07:11;98254.25;;;20.44;36.67
57574;BME280;63722;48.858;21.906;2023-02-19T05:09:36;98228.13;;;20.41;36.57
57574;BME280;63722;48.858;21.906;2023-02-19T05:12:01;98235.84;;;20.43;36.83
57574;BME280;63722;48.858;21.906;2023-02-19T05:14:27;98226.50;;;20.40;36.58
57574;BME280;63722;48.858;21.906;2023-02-19T05:16:52;98233.72;;;20.45;36.59
57574;BME280;63722;48.858;21.906;2023-02-19T05:19:18;98227.56;;;20.39;36.82
57574;BME280;63722;48.858;21.906;2023-02-19T05:21:43;98213.25;;;20.45;36.72
57574;BME280;63722;48.858;21.906;2023-02-19T05:24:08;98196.16;;;20.41;36.77
57574;BME280;63722;48.858;21.906;2023-02-19T05:26:34;98227.09;;;20.47;36.68
57574;BME280;63722;48.858;21.906;2023-02-19T05:29:00;98230.78;;;20.41;36.54
57574;BME280;63722;48.858;21.906;2023-02-19T05:31:25;98240.16;;;20.49;36.63
57574;BME280;63722;48.858;21.906;2023-02-19T05:33:51;98225.19;;;20.43;36.68
57574;BME280;63722;48.858;21.906;2023-02-19T05:36:18;98220.63;;;20.38;36.69
57574;BME280;63722;48.858;21.906;2023-02-19T05:38:44;98211.34;;;20.41;36.67
57574;BME280;63722;48.858;21.906;2023-02-19T05:41:15;98211.13;;;20.47;36.72
57574;BME280;63722;48.858;21.906;2023-02-19T05:43:42;98219.38;;;20.46;36.59
57574;BME280;63722;48.858;21.906;2023-02-19T05:46:09;98207.31;;;20.38;36.66
57574;BME280;63722;48.858;21.906;2023-02-19T05:48:35;98202.28;;;20.42;36.97
57574;BME280;63722;48.858;21.906;2023-02-19T05:51:06;98207.41;;;20.48;36.32
57574;BME280;63722;48.858;21.906;2023-02-19T05:53:33;98206.06;;;20.46;36.62
57574;BME280;63722;48.858;21.906;2023-02-19T05:55:59;98199.59;;;20.36;36.65
57574;BME280;63722;48.858;21.906;2023-02-19T05:58:25;98199.09;;;20.45;36.81
57574;BME280;63722;48.858;21.906;2023-02-19T06:00:51;98213.75;;;20.42;36.64
57574;BME280;63722;48.858;21.906;2023-02-19T06:03:16;98219.13;;;20.47;36.72
57574;BME280;63722;48.858;21.906;2023-02-19T06:05:42;98216.44;;;20.47;36.78
57574;BME280;63722;48.858;21.906;2023-02-19T06:08:09;98214.28;;;20.44;36.59
57574;BME280;63722;48.858;21.906;2023-02-19T06:10:37;98208.13;;;20.38;36.84
57574;BME280;63722;48.858;21.906;2023-02-19T06:13:04;98204.41;;;20.39;36.79
57574;BME280;63722;48.858;21.906;2023-02-19T06:15:29;98186.53;;;20.35;36.71
57574;BME280;63722;48.858;21.906;2023-02-19T06:17:55;98187.66;;;20.44;36.62
57574;BME280;63722;48.858;21.906;2023-02-19T06:20:20;98181.56;;;20.49;36.61
57574;BME280;63722;48.858;21.906;2023-02-19T06:22:46;98177.53;;;20.46;36.50
57574;BME280;63722;48.858;21.906;2023-02-19T06:25:13;98174.34;;;20.44;36.50
57574;BME280;63722;48.858;21.906;2023-02-19T06:27:39;98172.22;;;20.46;36.66
57574;BME280;63722;48.858;21.906;2023-02-19T06:30:04;98169.03;;;20.44;36.67
57574;BME280;63722;48.858;21.906;2023-02-19T06:32:30;98171.16;;;20.42;36.84
57574;BME280;63722;48.858;21.906;2023-02-19T06:34:55;98170.06;;;20.43;36.64
57574;BME280;63722;48.858;21.906;2023-02-19T06:37:20;98176.22;;;20.44;36.69
57574;BME280;63722;48.858;21.906;2023-02-19T06:39:46;98167.41;;;20.43;36.73
57574;BME280;63722;48.858;21.906;2023-02-19T06:42:11;98159.97;;;20.45;36.55
57574;BME280;63722;48.858;21.906;2023-02-19T06:44:36;98146.09;;;20.43;36.68
57574;BME280;63722;48.858;21.906;2023-02-19T06:47:02;98138.69;;;20.45;36.52
57574;BME280;63722;48.858;21.906;2023-02-19T06:49:27;98137.84;;;20.45;36.55
57574;BME280;63722;48.858;21.906;2023-02-19T06:51:53;98132.25;;;20.41;36.50
57574;BME280;63722;48.858;21.906;2023-02-19T06:54:18;98128.53;;;20.42;36.57
57574;BME280;63722;48.858;21.906;2023-02-19T06:56:43;98138.09;;;20.38;36.57
57574;BME280;63722;48.858;21.906;2023-02-19T06:59:12;98140.22;;;20.41;36.74
57574;BME280;63722;48.858;21.906;2023-02-19T07:01:38;98152.25;;;20.44;36.65
57574;BME280;63722;48.858;21.906;2023-02-19T07:04:06;98149.28;;;20.40;36.83
57574;BME280;63722;48.858;21.906;2023-02-19T07:06:32;98146.34;;;20.42;36.70
57574;BME280;63722;48.858;21.906;2023-02-19T07:08:58;98138.63;;;20.40;36.63
57574;BME280;63722;48.858;21.906;2023-02-19T07:11:24;98142.91;;;20.41;36.62
57574;BME280;63722;48.858;21.906;2023-02-19T07:13:54;98139.19;;;20.42;36.66
57574;BME280;63722;48.858;21.906;2023-02-19T07:16:19;98126.38;;;20.39;36.69
57574;BME280;63722;48.858;21.906;2023-02-19T07:18:45;98114.66;;;20.40;36.72
57574;BME280;63722;48.858;21.906;2023-02-19T07:21:11;98112.00;;;20.40;36.56
57574;BME280;63722;48.858;21.906;2023-02-19T07:23:38;98117.38;;;20.45;36.52
57574;BME280;63722;48.858;21.906;2023-02-19T07:26:08;98112.06;;;20.50;36.56
57574;BME280;63722;48.858;21.906;2023-02-19T07:28:33;98119.19;;;20.39;36.68
57574;BME280;63722;48.858;21.906;2023-02-19T07:31:01;98116.53;;;20.45;36.52
57574;BME280;63722;48.858;21.906;2023-02-19T07:33:27;98122.19;;;20.48;36.46
57574;BME280;63722;48.858;21.906;2023-02-19T07:35:52;98136.00;;;20.45;36.50
57574;BME280;63722;48.858;21.906;2023-02-19T07:38:20;98130.63;;;20.40;36.70
57574;BME280;63722;48.858;21.906;2023-02-19T07:40:57;98138.41;;;20.47;36.67
57574;BME280;63722;48.858;21.906;2023-02-19T07:43:23;98124.78;;;20.43;36.68
57574;BME280;63722;48.858;21.906;2023-02-19T07:45:49;98099.25;;;20.42;36.57
57574;BME280;63722;48.858;21.906;2023-02-19T07:48:14;98101.38;;;20.45;36.50
57574;BME280;63722;48.858;21.906;2023-02-19T07:50:40;98098.97;;;20.44;36.70
57574;BME280;63722;48.858;21.906;2023-02-19T07:53:06;98104.31;;;20.44;36.49
57574;BME280;63722;48.858;21.906;2023-02-19T07:55:32;98093.34;;;20.40;36.59
57574;BME280;63722;48.858;21.906;2023-02-19T07:57:58;98091.81;;;20.49;36.52
57574;BME280;63722;48.858;21.906;2023-02-19T08:00:24;98087.56;;;20.48;36.57
57574;BME280;63722;48.858;21.906;2023-02-19T08:02:50;98091.56;;;20.51;36.57
57574;BME280;63722;48.858;21.906;2023-02-19T08:05:45;98081.72;;;20.51;36.56
57574;BME280;63722;48.858;21.906;2023-02-19T08:08:14;98087.50;;;20.43;36.61
57574;BME280;63722;48.858;21.906;2023-02-19T08:10:40;98093.41;;;20.50;36.49
57574;BME280;63722;48.858;21.906;2023-02-19T08:13:25;98093.16;;;20.47;36.57
57574;BME280;63722;48.858;21.906;2023-02-19T08:18:20;98099.25;;;20.47;36.45
57574;BME280;63722;48.858;21.906;2023-02-19T08:20:46;98098.78;;;20.55;36.56
57574;BME280;63722;48.858;21.906;2023-02-19T08:23:12;98091.56;;;20.51;36.38
57574;BME280;63722;48.858;21.906;2023-02-19T08:25:38;98093.41;;;20.45;36.45
57574;BME280;63722;48.858;21.906;2023-02-19T08:28:04;98088.88;;;20.51;36.43
57574;BME280;63722;48.858;21.906;2023-02-19T08:30:31;98090.25;;;20.53;36.38
57574;BME280;63722;48.858;21.906;2023-02-19T08:32:58;98100.38;;;20.51;36.38
57574;BME280;63722;48.858;21.906;2023-02-19T08:35:23;98096.88;;;20.51;36.53
57574;BME280;63722;48.858;21.906;2023-02-19T08:37:49;98104.06;;;20.50;36.59
57574;BME280;63722;48.858;21.906;2023-02-19T08:40:14;98107.00;;;20.49;36.41
57574;BME280;63722;48.858;21.906;2023-02-19T08:42:40;98104.06;;;20.50;36.63
57574;BME280;63722;48.858;21.906;2023-02-19T08:45:06;98096.09;;;20.55;36.61
57574;BME280;63722;48.858;21.906;2023-02-19T08:47:34;98090.25;;;20.53;36.39
57574;BME280;63722;48.858;21.906;2023-02-19T08:49:59;98077.44;;;20.50;36.43
57574;BME280;63722;48.858;21.906;2023-02-19T08:52:25;98083.88;;;20.54;36.45
57574;BME280;63722;48.858;21.906;2023-02-19T08:54:50;98082.50;;;20.52;36.39
57574;BME280;63722;48.858;21.906;2023-02-19T08:57:15;98073.75;;;20.56;36.18
57574;BME280;63722;48.858;21.906;2023-02-19T08:59:41;98070.56;;;20.60;36.51
57574;BME280;63722;48.858;21.906;2023-02-19T09:02:08;98064.72;;;20.63;36.45
57574;BME280;63722;48.858;21.906;2023-02-19T09:04:33;98063.09;;;20.62;36.29
57574;BME280;63722;48.858;21.906;2023-02-19T09:06:58;98068.44;;;20.62;36.50
57574;BME280;63722;48.858;21.906;2023-02-19T09:09:24;98072.69;;;20.57;36.35
57574;BME280;63722;48.858;21.906;2023-02-19T09:11:49;98078.81;;;20.58;36.60
57574;BME280;63722;48.858;21.906;2023-02-19T09:14:14;98077.50;;;20.61;36.32
57574;BME280;63722;48.858;21.906;2023-02-19T09:16:40;98080.19;;;20.61;36.48
57574;BME280;63722;48.858;21.906;2023-02-19T09:19:05;98073.50;;;20.58;36.47
57574;BME280;63722;48.858;21.906;2023-02-19T09:21:31;98074.31;;;20.64;36.33
57574;BME280;63722;48.858;21.906;2023-02-19T09:23:56;98075.09;;;20.59;36.42
57574;BME280;63722;48.858;21.906;2023-02-19T09:26:21;98075.91;;;20.60;36.67
57574;BME280;63722;48.858;21.906;2023-02-19T09:28:47;98069.25;;;20.62;36.48
57574;BME280;63722;48.858;21.906;2023-02-19T09:31:14;98080.72;;;20.63;36.26
57574;BME280;63722;48.858;21.906;2023-02-19T09:33:44;98065.50;;;20.63;36.46
57574;BME280;63722;48.858;21.906;2023-02-19T09:36:09;98071.38;;;20.60;36.29
57574;BME280;63722;48.858;21.906;2023-02-19T09:38:35;98067.38;;;20.57;36.38
57574;BME280;63722;48.858;21.906;2023-02-19T09:41:13;98065.78;;;20.62;36.52
57574;BME280;63722;48.858;21.906;2023-02-19T09:43:39;98059.91;;;20.60;36.52
57574;BME280;63722;48.858;21.906;2023-02-19T09:46:30;98053.03;;;20.64;36.23
57574;BME280;63722;48.858;21.906;2023-02-19T09:49:02;98051.44;;;20.68;36.39
57574;BME280;63722;48.858;21.906;2023-02-19T09:51:31;98051.91;;;20.60;36.51
57574;BME280;63722;48.858;21.906;2023-02-19T09:53:59;98049.31;;;20.65;36.26
57574;BME280;63722;48.858;21.906;2023-02-19T09:56:25;98029.25;;;20.57;36.20
57574;BME280;63722;48.858;21.906;2023-02-19T09:58:53;98045.53;;;20.61;36.46
57574;BME280;63722;48.858;21.906;2023-02-19T10:01:23;98042.63;;;20.62;36.30
57574;BME280;63722;48.858;21.906;2023-02-19T10:03:51;98049.25;;;20.60;36.43
57574;BME280;63722;48.858;21.906;2023-02-19T10:06:25;98045.28;;;20.62;36.40
57574;BME280;63722;48.858;21.906;2023-02-19T10:09:22;98045.28;;;20.62;36.52
57574;BME280;63722;48.858;21.906;2023-02-19T10:11:51;98030.06;;;20.57;36.50
57574;BME280;63722;48.858;21.906;2023-02-19T10:14:40;98041.31;;;20.65;36.53
57574;BME280;63722;48.858;21.906;2023-02-19T10:17:16;98021.81;;;20.59;36.46
57574;BME280;63722;48.858;21.906;2023-02-19T10:19:44;98022.03;;;20.52;36.50
57574;BME280;63722;48.858;21.906;2023-02-19T10:22:10;98013.53;;;20.55;36.57
57574;BME280;63722;48.858;21.906;2023-02-19T10:24:39;98011.97;;;20.60;36.46
57574;BME280;63722;48.858;21.906;2023-02-19T10:27:13;98004.50;;;20.62;36.38
57574;BME280;63722;48.858;21.906;2023-02-19T10:29:39;98002.97;;;20.66;36.31
57574;BME280;63722;48.858;21.906;2023-02-19T10:34:42;97993.31;;;20.60;36.36
57574;BME280;63722;48.858;21.906;2023-02-19T10:37:12;97995.47;;;20.63;36.43
57574;BME280;63722;48.858;21.906;2023-02-19T10:42:13;97995.47;;;20.63;36.46
57574;BME280;63722;48.858;21.906;2023-02-19T10:44:43;98002.41;;;20.64;36.26
57574;BME280;63722;48.858;21.906;2023-02-19T10:47:16;97990.69;;;20.65;36.43
57574;BME280;63722;48.858;21.906;2023-02-19T10:49:42;97987.72;;;20.61;36.51
57574;BME280;63722;48.858;21.906;2023-02-19T10:52:42;97989.09;;;20.64;36.51
57574;BME280;63722;48.858;21.906;2023-02-19T10:55:32;97982.72;;;20.65;36.26
57574;BME280;63722;48.858;21.906;2023-02-19T10:58:25;97974.72;;;20.65;36.32
57574;BME280;63722;48.858;21.906;2023-02-19T11:01:21;97973.88;;;20.64;36.42
57574;BME280;63722;48.858;21.906;2023-02-19T11:03:51;97969.34;;;20.60;36.46
57574;BME280;63722;48.858;21.906;2023-02-19T11:06:19;97959.75;;;20.58;36.54
57574;BME280;63722;48.858;21.906;2023-02-19T11:08:57;97958.72;;;20.65;36.38
57574;BME280;63722;48.858;21.906;2023-02-19T11:11:33;97947.50;;;20.63;36.35
57574;BME280;63722;48.858;21.906;2023-02-19T11:14:13;97949.13;;;20.64;36.27
57574;BME280;63722;48.858;21.906;2023-02-19T11:21:58;97939.78;;;20.61;36.55
57574;BME280;63722;48.858;21.906;2023-02-19T11:24:31;97947.50;;;20.63;36.31
57574;BME280;63722;48.858;21.906;2023-02-19T11:27:06;97949.69;;;20.66;36.10
57574;BME280;63722;48.858;21.906;2023-02-19T11:29:38;97944.59;;;20.64;36.47
57574;BME280;63722;48.858;21.906;2023-02-19T11:34:44;97955.50;;;20.57;36.39
57574;BME280;63722;48.858;21.906;2023-02-19T11:37:18;97944.53;;;20.54;36.56
57574;BME280;63722;48.858;21.906;2023-02-19T11:39:47;97949.88;;;20.54;36.50
57574;BME280;63722;48.858;21.906;2023-02-19T11:47:54;97941.69;;;20.66;36.52
57574;BME280;63722;48.858;21.906;2023-02-19T11:58:23;97943.22;;;20.56;36.58
57574;BME280;63722;48.858;21.906;2023-02-19T12:09:39;97957.59;;;20.55;36.36
57574;BME280;63722;48.858;21.906;2023-02-19T12:17:33;97982.66;;;20.54;36.47
57574;BME280;63722;48.858;21.906;2023-02-19T12:20:27;97988.50;;;20.56;36.67
57574;BME280;63722;48.858;21.906;2023-02-19T12:23:30;97984.22;;;20.55;36.74
57574;BME280;63722;48.858;21.906;2023-02-19T12:28:42;97992.75;;;20.52;36.46
57574;BME280;63722;48.858;21.906;2023-02-19T12:36:46;97995.41;;;20.52;36.67
57574;BME280;63722;48.858;21.906;2023-02-19T12:39:43;98002.06;;;20.50;36.50
57574;BME280;63722;48.858;21.906;2023-02-19T12:45:13;98007.69;;;20.53;36.61
57574;BME280;63722;48.858;21.906;2023-02-19T12:47:41;98006.59;;;20.49;36.64
57574;BME280;63722;48.858;21.906;2023-02-19T12:50:24;98003.69;;;20.56;36.46
57574;BME280;63722;48.858;21.906;2023-02-19T12:53:54;98017.28;;;20.60;36.42
57574;BME280;63722;48.858;21.906;2023-02-19T12:56:03;98021.25;;;20.52;36.46
57574;BME280;63722;48.858;21.906;2023-02-19T12:58:44;98024.44;;;20.54;36.52
57574;BME280;63722;48.858;21.906;2023-02-19T13:01:17;98018.84;;;20.50;36.54
57574;BME280;63722;48.858;21.906;2023-02-19T13:04:06;98036.19;;;20.53;36.59
57574;BME280;63722;48.858;21.906;2023-02-19T13:06:42;98027.94;;;20.54;36.45
57574;BME280;63722;48.858;21.906;2023-02-19T13:09:17;98034.88;;;20.61;36.35
57574;BME280;63722;48.858;21.906;2023-02-19T13:11:55;98031.16;;;20.62;36.41
57574;BME280;63722;48.858;21.906;2023-02-19T13:14:33;98044.72;;;20.55;36.64
57574;BME280;63722;48.858;21.906;2023-02-19T13:17:09;98040.44;;;20.54;36.32
57574;BME280;63722;48.858;21.906;2023-02-19T13:19:41;98042.31;;;20.53;36.49
57574;BME280;63722;48.858;21.906;2023-02-19T13:34:08;98060.69;;;20.55;36.38
57574;BME280;63722;48.858;21.906;2023-02-19T13:36:39;98054.00;;;20.47;36.74
57574;BME280;63722;48.858;21.906;2023-02-19T13:39:06;98046.84;;;20.53;36.58
57574;BME280;63722;48.858;21.906;2023-02-19T13:41:58;98042.31;;;20.58;36.36
57574;BME280;63722;48.858;21.906;2023-02-19T13:44:26;98053.53;;;20.61;36.33
57574;BME280;63722;48.858;21.906;2023-02-19T13:46:52;98055.63;;;20.58;36.46
57574;BME280;63722;48.858;21.906;2023-02-19T13:52:00;98052.44;;;20.62;36.51
57574;BME280;63722;48.858;21.906;2023-02-19T13:59:44;98048.78;;;20.68;36.23
57574;BME280;63722;48.858;21.906;2023-02-19T14:23:28;98051.91;;;20.54;36.10
57574;BME280;63722;48.858;21.906;2023-02-19T14:25:58;98058.03;;;20.55;36.49
57574;BME280;63722;48.858;21.906;2023-02-19T14:28:35;98063.88;;;20.57;36.41
57574;BME280;63722;48.858;21.906;2023-02-19T14:31:09;98062.84;;;20.58;36.35
57574;BME280;63722;48.858;21.906;2023-02-19T14:33:41;98064.66;;;20.52;36.56
57574;BME280;63722;48.858;21.906;2023-02-19T14:38:45;98070.06;;;20.63;36.33
57574;BME280;63722;48.858;21.906;2023-02-19T14:41:13;98075.88;;;20.54;36.30
57574;BME280;63722;48.858;21.906;2023-02-19T14:43:39;98072.69;;;20.57;36.28
57574;BME280;63722;48.858;21.906;2023-02-19T14:46:31;98080.97;;;20.61;36.49
57574;BME280;63722;48.858;21.906;2023-02-19T14:49:05;98081.50;;;20.63;36.27
57574;BME280;63722;48.858;21.906;2023-02-19T14:51:35;98092.41;;;20.56;36.37
57574;BME280;63722;48.858;21.906;2023-02-19T14:54:11;98101.75;;;20.64;36.46
57574;BME280;63722;48.858;21.906;2023-02-19T14:56:39;98096.69;;;20.63;36.47
57574;BME280;63722;48.858;21.906;2023-02-19T15:01:36;98101.75;;;20.59;36.26
57574;BME280;63722;48.858;21.906;2023-02-19T15:04:02;98097.22;;;20.60;36.35
57574;BME280;63722;48.858;21.906;2023-02-19T15:06:29;98102.31;;;20.66;36.20
57574;BME280;63722;48.858;21.906;2023-02-19T15:09:03;98115.91;;;20.65;36.42
57574;BME280;63722;48.858;21.906;2023-02-19T15:11:30;98120.66;;;20.57;36.53
57574;BME280;63722;48.858;21.906;2023-02-19T15:14:04;98109.72;;;20.59;36.54